Time;durP1;ratioP1;P1;durP2;ratioP2;P2;SDS_P1;SDS_P2;PMS_P1;PMS_P2;Temp;Humidity;BMP_temperature;BMP_pressure;BME280_temperature;BME280_humidity;BME280_pressure;Samples;Min_cycle;Max_cycle;Signal;HPM_P1;HPM_P2
2022/08/10 00:01:33;;;;;;;10.93;2.30;;;;;;;17.75;63.75;102046.53;5036307;28;20050;-58
2022/08/10 00:04:00;;;;;;;3.70;2.15;;;;;;;17.74;63.81;102051.94;5026476;28;20076;-53
2022/08/10 00:06:28;;;;;;;7.30;2.83;;;;;;;17.73;63.98;102061.72;5026551;28;20445;-56
2022/08/10 00:08:55;;;;;;;7.35;2.63;;;;;;;17.70;64.37;102057.47;5025866;28;20468;-58
2022/08/10 00:11:23;;;;;;;8.57;3.28;;;;;;;17.68;65.00;102053.19;5032675;28;20060;-60
2022/08/10 00:13:50;;;;;;;6.43;2.65;;;;;;;17.63;65.00;102056.16;5035070;28;20067;-56
2022/08/10 00:16:17;;;;;;;10.25;2.85;;;;;;;17.60;65.43;102063.47;5031779;28;20430;-59
2022/08/10 00:18:44;;;;;;;6.53;2.28;;;;;;;17.58;65.35;102057.41;5029715;28;20045;-56
2022/08/10 00:21:11;;;;;;;6.47;2.85;;;;;;;17.54;65.48;102058.56;5034341;28;20529;-55
2022/08/10 00:23:38;;;;;;;4.95;2.13;;;;;;;17.50;65.92;102059.72;5034142;28;20052;-60
2022/08/10 00:26:06;;;;;;;7.38;2.28;;;;;;;17.46;65.99;102065.22;5034237;28;20050;-54
2022/08/10 00:28:33;;;;;;;5.18;2.40;;;;;;;17.41;65.91;102056.69;5033487;28;20045;-57
2022/08/10 00:31:00;;;;;;;3.72;2.28;;;;;;;17.40;66.78;102056.81;5036513;28;20050;-58
2022/08/10 00:33:27;;;;;;;4.30;2.03;;;;;;;17.36;66.59;102052.63;5033478;28;20071;-56
2022/08/10 00:35:54;;;;;;;13.60;2.95;;;;;;;17.34;67.22;102063.38;5030158;28;20061;-58
2022/08/10 00:38:21;;;;;;;4.97;2.20;;;;;;;17.31;66.93;102055.59;5028506;28;20049;-57
2022/08/10 00:40:48;;;;;;;6.50;2.53;;;;;;;17.30;67.08;102059.22;5026583;28;20052;-57
2022/08/10 00:43:16;;;;;;;8.50;2.85;;;;;;;17.28;67.81;102054.94;5036075;28;20053;-56
2022/08/10 00:45:51;;;;;;;3.25;2.05;;;;;;;17.22;67.63;102056.19;5032758;28;20064;-51
2022/08/10 00:48:29;;;;;;;5.20;2.33;;;;;;;17.18;67.87;102055.53;5028451;28;20060;-56
2022/08/10 00:50:58;;;;;;;8.32;3.20;;;;;;;17.16;67.45;102045.94;5036347;28;20516;-61
2022/08/10 00:53:26;;;;;;;5.50;2.08;;;;;;;17.15;68.13;102037.06;5029724;28;20568;-59
2022/08/10 00:55:53;;;;;;;7.45;2.55;;;;;;;17.15;68.04;102039.72;5026976;28;20048;-59
2022/08/10 00:58:41;;;;;;;3.97;2.58;;;;;;;17.14;67.87;102035.38;5032744;28;20057;-56
2022/08/10 01:01:08;;;;;;;5.82;2.58;;;;;;;17.13;68.39;102036.34;5028619;28;20052;-55
2022/08/10 01:03:55;;;;;;;8.68;3.13;;;;;;;17.09;68.27;102026.84;5032051;28;20053;-56
2022/08/10 01:07:06;;;;;;;9.75;3.20;;;;;;;17.08;68.34;102026.94;5024803;28;20041;-56
2022/08/10 01:10:01;;;;;;;3.90;2.58;;;;;;;17.08;68.36;102027.78;5020350;28;20045;-62
2022/08/10 01:12:41;;;;;;;8.33;2.70;;;;;;;17.05;68.48;102029.78;5020246;28;20136;-56
2022/08/10 01:15:17;;;;;;;6.50;3.15;;;;;;;17.03;69.76;102021.06;5029101;28;21216;-58
2022/08/10 01:18:02;;;;;;;6.32;3.30;;;;;;;16.97;69.52;102019.63;5031921;28;20068;-58
2022/08/10 01:21:00;;;;;;;7.82;3.40;;;;;;;16.93;69.43;102026.97;5020133;28;20077;-55
2022/08/10 01:23:41;;;;;;;7.05;2.95;;;;;;;16.89;69.70;102025.47;5036277;28;20072;-60
2022/08/10 01:26:20;;;;;;;8.02;2.58;;;;;;;16.87;69.57;102026.50;5032027;28;20053;-59
2022/08/10 01:29:51;;;;;;;5.60;2.78;;;;;;;16.83;70.74;102032.94;5031128;28;20065;-56
2022/08/10 01:32:29;;;;;;;10.73;3.55;;;;;;;16.77;70.25;102028.03;4966287;28;20054;-59
2022/08/10 01:35:03;;;;;;;7.68;2.88;;;;;;;16.75;71.15;102027.25;5038735;28;20048;-60
2022/08/10 01:37:33;;;;;;;4.88;2.95;;;;;;;16.70;71.17;102025.69;5030373;28;20061;-60
2022/08/10 01:40:03;;;;;;;9.95;2.90;;;;;;;16.68;71.64;102026.75;5024313;28;20057;-53
2022/08/10 01:42:33;;;;;;;8.88;4.22;;;;;;;16.65;71.69;102029.59;5033750;28;20509;-54
2022/08/10 01:45:03;;;;;;;8.35;2.90;;;;;;;16.63;71.74;102021.72;5033703;28;20049;-60
2022/08/10 01:50:36;;;;;;;4.22;3.05;;;;;;;16.53;72.22;102025.91;5031426;28;20133;-56
2022/08/10 01:53:27;;;;;;;5.03;2.60;;;;;;;16.50;72.24;102019.94;5018658;28;20057;-59
2022/08/10 01:56:10;;;;;;;5.50;2.72;;;;;;;16.46;73.31;102022.75;5021240;28;20079;-58
2022/08/10 01:58:38;;;;;;;6.60;2.55;;;;;;;16.44;73.63;102022.03;5036184;28;20544;-51
2022/08/10 02:01:08;;;;;;;4.80;2.63;;;;;;;16.42;73.21;102020.38;5029758;28;20050;-57
2022/08/10 02:03:37;;;;;;;7.93;3.28;;;;;;;16.41;73.62;102021.34;5036582;28;20068;-60
2022/08/10 02:06:26;;;;;;;10.52;3.63;;;;;;;16.39;73.84;102015.25;5022539;28;20053;-60
2022/08/10 02:08:54;;;;;;;6.20;3.50;;;;;;;16.36;73.99;102018.97;5031413;28;20406;-58
2022/08/10 02:11:34;;;;;;;13.02;4.13;;;;;;;16.33;74.41;102023.63;5033622;28;20049;-56
2022/08/10 02:14:23;;;;;;;6.88;3.65;;;;;;;16.30;74.24;102022.00;5027244;28;20045;-57
2022/08/10 02:17:01;;;;;;;9.35;3.65;;;;;;;16.27;75.36;102022.19;5029770;28;20045;-60
2022/08/10 02:19:29;;;;;;;10.43;4.03;;;;;;;16.23;74.70;102025.13;5030753;28;20426;-56
2022/08/10 02:21:57;;;;;;;6.95;3.88;;;;;;;16.21;75.13;102025.22;5031603;28;20552;-62
2022/08/10 02:24:45;;;;;;;5.45;3.67;;;;;;;16.16;75.80;102028.13;5035907;28;20199;-60
2022/08/10 02:27:14;;;;;;;9.10;3.97;;;;;;;16.11;75.71;102022.25;5026489;28;20495;-52
2022/08/10 02:29:42;;;;;;;7.70;3.80;;;;;;;16.09;75.92;102023.31;5039277;28;20431;-58
2022/08/10 02:32:16;;;;;;;5.60;3.90;;;;;;;16.07;76.06;102022.53;5032161;28;20050;-61
2022/08/10 02:35:06;;;;;;;8.40;4.38;;;;;;;16.04;75.90;102020.91;5037549;28;20139;-57
2022/08/10 02:37:36;;;;;;;6.55;3.83;;;;;;;16.02;76.10;102029.91;5031669;28;20581;-56
2022/08/10 02:43:54;;;;;;;9.13;4.22;;;;;;;15.99;76.34;102025.66;5030249;28;20041;-58
2022/08/10 02:46:45;;;;;;;6.88;3.65;;;;;;;15.96;77.43;102036.44;5026193;28;20458;-57
2022/08/10 02:49:19;;;;;;;7.95;4.20;;;;;;;15.93;77.66;102032.16;5035265;28;20111;-58
2022/08/10 02:51:55;;;;;;;7.50;3.88;;;;;;;15.92;77.95;102027.81;5026491;28;20497;-60
2022/08/10 02:54:37;;;;;;;6.18;3.30;;;;;;;15.87;78.90;102021.91;5031991;28;20053;-61
2022/08/10 02:57:05;;;;;;;6.78;4.03;;;;;;;15.82;79.20;102028.44;5032195;28;20137;-58
2022/08/10 02:59:44;;;;;;;9.88;4.00;;;;;;;15.77;79.64;102027.88;5023303;28;20053;-58
2022/08/10 03:02:18;;;;;;;7.47;3.90;;;;;;;15.72;79.72;102027.28;5027973;28;20049;-60
2022/08/10 03:04:47;;;;;;;7.40;3.83;;;;;;;15.70;79.99;102030.00;5027625;28;20099;-61
2022/08/10 03:07:27;;;;;;;6.43;3.88;;;;;;;15.69;79.86;102023.00;5032238;28;20056;-60
2022/08/10 03:10:31;;;;;;;5.15;3.45;;;;;;;15.66;80.14;102031.97;5030606;28;20413;-59
2022/08/10 03:13:00;;;;;;;8.93;3.90;;;;;;;15.67;79.84;102033.72;5034686;28;20052;-61
2022/08/10 03:15:28;;;;;;;6.40;3.45;;;;;;;15.67;79.39;102028.41;5032176;28;20686;-60
2022/08/10 03:17:56;;;;;;;6.25;3.70;;;;;;;15.68;79.38;102024.78;5033350;28;20057;-53
2022/08/10 03:20:32;;;;;;;7.63;3.75;;;;;;;15.72;79.77;102027.28;5023669;28;20049;-60
2022/08/10 03:23:12;;;;;;;4.97;3.50;;;;;;;15.72;79.94;102024.63;5033749;28;20055;-56
2022/08/10 03:25:40;;;;;;;7.65;3.70;;;;;;;15.71;79.65;102026.41;5032532;28;20057;-56
2022/08/10 03:28:25;;;;;;;6.75;3.40;;;;;;;15.70;79.27;102024.69;5038730;28;20050;-57
2022/08/10 03:30:53;;;;;;;8.18;3.80;;;;;;;15.70;79.01;102028.19;5042717;22;20049;-57
2022/08/10 03:33:22;;;;;;;6.78;3.80;;;;;;;15.71;79.10;102018.44;5032513;28;20056;-58
2022/08/10 03:35:50;;;;;;;9.68;4.38;;;;;;;15.70;81.17;102020.25;5032526;28;20060;-56
2022/08/10 03:38:39;;;;;;;6.22;3.67;;;;;;;15.65;79.86;102021.47;5025675;28;20339;-58
2022/08/10 03:41:08;;;;;;;7.03;3.38;;;;;;;15.65;79.79;102027.63;5033229;28;20200;-57
2022/08/10 03:43:36;;;;;;;9.20;3.55;;;;;;;15.64;79.86;102025.91;5033991;28;20049;-59
2022/08/10 03:46:05;;;;;;;7.75;3.70;;;;;;;15.65;79.86;102024.97;5028328;28;20410;-58
2022/08/10 03:48:33;;;;;;;8.73;3.63;;;;;;;15.65;79.83;102022.31;5033263;28;20069;-59
2022/08/10 03:51:20;;;;;;;6.72;3.38;;;;;;;15.65;79.63;102027.63;5029839;28;20049;-57
2022/08/10 03:53:48;;;;;;;8.88;3.58;;;;;;;15.68;79.35;102026.59;5029752;28;20050;-55
2022/08/10 03:56:34;;;;;;;10.45;4.60;;;;;;;15.65;80.43;102027.63;5022509;28;20049;-57
2022/08/10 03:59:01;;;;;;;9.60;4.05;;;;;;;15.61;80.04;102020.75;5030906;28;20057;-58
2022/08/10 04:01:29;;;;;;;7.95;3.88;;;;;;;15.61;79.94;102028.69;5032724;28;20137;-56
2022/08/10 04:04:16;;;;;;;9.23;3.95;;;;;;;15.61;80.07;102025.19;5033040;28;20543;-57
2022/08/10 04:06:51;;;;;;;9.20;4.43;;;;;;;15.64;79.95;102025.06;5033648;28;20144;-58
2022/08/10 04:09:27;;;;;;;11.25;4.63;;;;;;;15.66;80.91;102033.78;5032132;28;20049;-56
2022/08/10 04:12:14;;;;;;;10.55;4.20;;;;;;;15.66;80.19;102029.31;5035188;28;20052;-59
2022/08/10 04:14:41;;;;;;;9.30;4.50;;;;;;;15.69;80.12;102033.63;5031973;28;20059;-57
2022/08/10 04:17:23;;;;;;;9.98;4.50;;;;;;;15.74;80.28;102036.00;5030272;28;20049;-58
2022/08/10 04:20:25;;;;;;;8.07;4.43;;;;;;;15.78;80.46;102034.88;5029964;28;20063;-55
2022/08/10 04:23:04;;;;;;;8.50;3.85;;;;;;;15.87;80.77;102031.69;5035774;28;20055;-58
2022/08/10 04:25:31;;;;;;;6.88;4.18;;;;;;;15.96;80.80;102033.78;5029679;28;20521;-57
2022/08/10 04:27:59;;;;;;;12.48;4.65;;;;;;;16.02;80.20;102027.25;5031801;28;20053;-59
2022/08/10 04:30:27;;;;;;;7.70;3.83;;;;;;;16.05;79.62;102040.38;5030543;28;20069;-58
2022/08/10 04:32:57;;;;;;;7.70;3.85;;;;;;;16.08;79.62;102030.41;5028580;28;20045;-58
2022/08/10 04:35:25;;;;;;;12.65;4.53;;;;;;;16.12;79.93;102029.28;5025185;28;20489;-57
2022/08/10 04:37:55;;;;;;;11.82;4.63;;;;;;;16.15;79.43;102030.91;5031862;28;20053;-58
2022/08/10 04:40:22;;;;;;;7.22;4.65;;;;;;;16.20;78.94;102034.97;5034874;28;20179;-56
2022/08/10 04:42:58;;;;;;;11.27;4.30;;;;;;;16.23;78.98;102039.25;5025643;28;20059;-57
2022/08/10 04:45:29;;;;;;;7.22;4.25;;;;;;;16.30;78.47;102042.38;5041528;28;20513;-59
2022/08/10 04:48:21;;;;;;;9.73;4.40;;;;;;;16.37;79.44;102047.25;5032481;28;20044;-58
2022/08/10 04:51:10;;;;;;;10.07;4.95;;;;;;;16.43;78.44;102054.00;5025289;28;20060;-59
2022/08/10 04:53:44;;;;;;;;;;;;;;;16.44;78.97;102055.72;5033043;28;20332;-59
2022/08/10 04:56:32;;;;;;;6.75;4.47;;;;;;;16.44;78.99;102053.91;5029558;28;19921;-59
2022/08/10 04:58:59;;;;;;;15.32;5.35;;;;;;;16.46;79.05;102053.81;5034584;28;20137;-58
2022/08/10 05:01:27;;;;;;;10.25;5.18;;;;;;;16.48;79.61;102057.25;5027182;28;20057;-59
2022/08/10 05:04:15;;;;;;;9.02;4.35;;;;;;;16.52;78.53;102055.22;5037326;28;20057;-58
2022/08/10 05:07:02;;;;;;;7.95;4.50;;;;;;;16.57;78.82;102064.66;5032212;28;20064;-57
2022/08/10 05:09:29;;;;;;;6.35;4.85;;;;;;;16.60;78.76;102060.94;5033965;28;20064;-55
2022/08/10 05:11:56;;;;;;;10.93;4.47;;;;;;;16.66;78.44;102060.56;5038135;28;20053;-57
2022/08/10 05:14:23;;;;;;;9.40;4.85;;;;;;;16.71;78.48;102062.00;5042896;28;20077;-57
2022/08/10 05:16:50;;;;;;;7.18;4.43;;;;;;;16.77;78.24;102058.13;5036578;28;20041;-57
2022/08/10 05:19:17;;;;;;;11.00;4.97;;;;;;;16.82;77.86;102066.69;5037186;28;20045;-56
2022/08/10 05:22:04;;;;;;;12.95;5.13;;;;;;;16.90;78.02;102068.88;5040313;28;20055;-59
2022/08/10 05:24:31;;;;;;;7.40;4.50;;;;;;;16.98;77.72;102074.56;5032206;28;20639;-58
2022/08/10 05:26:59;;;;;;;10.23;4.50;;;;;;;17.05;77.67;102065.22;5035061;28;20055;-57
2022/08/10 05:29:36;;;;;;;6.53;5.03;;;;;;;17.11;77.77;102069.31;5036086;28;20504;-58
2022/08/10 05:32:03;;;;;;;6.40;4.60;;;;;;;17.15;77.44;102063.69;5032586;28;20436;-58
2022/08/10 05:34:30;;;;;;;10.48;4.72;;;;;;;17.23;77.25;102067.69;5034742;28;20041;-59
2022/08/10 05:36:57;;;;;;;12.48;5.00;;;;;;;17.27;77.10;102075.38;5028562;28;20054;-59
2022/08/10 05:39:25;;;;;;;13.85;5.03;;;;;;;17.33;76.45;102074.97;5036346;28;20511;-55
2022/08/10 05:41:58;;;;;;;7.40;4.35;;;;;;;17.43;76.62;102075.25;5036516;28;20066;-58
2022/08/10 05:44:28;;;;;;;7.50;4.50;;;;;;;17.49;75.97;102074.84;5033457;28;20054;-57
2022/08/10 05:46:55;;;;;;;10.45;4.43;;;;;;;17.54;76.04;102072.72;5039470;28;20327;-57
2022/08/10 05:49:22;;;;;;;9.95;4.63;;;;;;;17.58;75.44;102076.91;5040875;28;20050;-56
2022/08/10 05:51:50;;;;;;;10.63;4.68;;;;;;;17.62;75.28;102082.88;5034930;28;20061;-59
2022/08/10 05:54:17;;;;;;;8.15;4.15;;;;;;;17.68;75.10;102074.50;5037004;28;20063;-59
2022/08/10 05:56:46;;;;;;;9.70;4.65;;;;;;;17.79;74.53;102076.50;5031982;28;20513;-56
2022/08/10 05:59:27;;;;;;;14.05;4.63;;;;;;;17.83;74.70;102084.19;5039599;28;20379;-56
2022/08/10 06:02:21;;;;;;;9.32;4.72;;;;;;;17.96;74.34;102085.03;5035885;28;20068;-59
2022/08/10 06:05:05;;;;;;;9.40;4.25;;;;;;;18.06;74.04;102087.97;5028823;28;20063;-59
2022/08/10 06:07:34;;;;;;;10.25;4.72;;;;;;;18.16;73.73;102085.53;5033860;28;20048;-58
2022/08/10 06:10:01;;;;;;;7.70;3.83;;;;;;;18.24;73.29;102083.22;5040544;28;20050;-58
2022/08/10 06:12:32;;;;;;;8.10;3.58;;;;;;;18.30;73.19;102088.09;5045553;28;20060;-54
2022/08/10 06:15:19;;;;;;;5.70;3.90;;;;;;;18.37;72.65;102091.19;5047233;28;20061;-54
2022/08/10 06:17:48;;;;;;;7.50;4.15;;;;;;;18.45;72.64;102087.03;5046724;28;20054;-57
2022/08/10 06:20:29;;;;;;;8.90;4.25;;;;;;;18.54;72.55;102090.03;5028461;28;20053;-59
2022/08/10 06:23:03;;;;;;;6.25;3.40;;;;;;;18.66;71.92;102091.88;5038754;28;20046;-58
2022/08/10 06:25:31;;;;;;;6.70;3.65;;;;;;;18.75;71.22;102090.41;5033423;28;20057;-58
2022/08/10 06:28:18;;;;;;;7.07;3.28;;;;;;;18.89;70.80;102087.59;5039889;28;20067;-58
2022/08/10 06:30:46;;;;;;;5.88;3.38;;;;;;;18.95;70.89;102097.84;5028850;28;20362;-58
2022/08/10 06:33:14;;;;;;;13.45;3.95;;;;;;;19.06;70.52;102091.75;5033137;28;20061;-56
2022/08/10 06:35:42;;;;;;;9.13;3.65;;;;;;;19.11;70.46;102098.47;5033541;28;20222;-60
2022/08/10 06:38:10;;;;;;;7.30;3.40;;;;;;;19.21;70.39;102094.16;5033892;28;20099;-59
2022/08/10 06:40:40;;;;;;;7.95;3.28;;;;;;;19.33;69.72;102080.91;5036010;28;20057;-55
2022/08/10 06:43:09;;;;;;;5.90;3.42;;;;;;;19.44;69.32;102083.63;5037258;28;20052;-55
2022/08/10 06:45:41;;;;;;;5.75;3.60;;;;;;;19.54;68.71;102081.97;5027204;28;20057;-58
2022/08/10 06:48:18;;;;;;;6.63;3.03;;;;;;;19.60;68.17;102078.91;5035736;28;20425;-61
2022/08/10 06:50:48;;;;;;;12.13;4.50;;;;;;;19.65;67.16;102083.91;5030598;28;20053;-59
2022/08/10 06:53:31;;;;;;;5.65;3.13;;;;;;;19.69;67.25;102083.56;5037491;28;20046;-57
2022/08/10 06:56:22;;;;;;;9.55;3.28;;;;;;;19.81;66.87;102079.09;5020062;28;20053;-56
2022/08/10 06:59:21;;;;;;;10.32;2.92;;;;;;;19.92;66.38;102078.31;5039096;28;20060;-60
2022/08/10 07:01:53;;;;;;;5.07;3.00;;;;;;;19.98;65.93;102080.53;5032329;28;20390;-59
2022/08/10 07:04:32;;;;;;;8.25;3.22;;;;;;;20.14;65.64;102072.19;5031265;28;20666;-57
2022/08/10 07:07:02;;;;;;;9.13;3.15;;;;;;;20.26;64.55;102073.91;5035081;28;20136;-58
2022/08/10 07:09:32;;;;;;;6.22;3.40;;;;;;;20.39;64.14;102068.47;5025952;28;20058;-58
2022/08/10 07:11:59;;;;;;;10.98;2.78;;;;;;;20.50;63.31;102070.38;5037629;28;20072;-57
2022/08/10 07:14:40;;;;;;;6.50;3.58;;;;;;;20.59;63.30;102075.00;5029553;28;20049;-58
2022/08/10 07:17:12;;;;;;;4.28;2.85;;;;;;;20.69;62.99;102076.81;5017179;28;20085;-57
2022/08/10 07:19:45;;;;;;;7.20;2.97;;;;;;;20.82;62.11;102067.81;5027922;28;20493;-57
2022/08/10 07:22:19;;;;;;;6.95;2.55;;;;;;;20.93;62.04;102068.66;5019380;28;20052;-59
2022/08/10 07:25:07;;;;;;;8.13;2.92;;;;;;;21.12;61.15;102070.72;5033126;28;20060;-58
2022/08/10 07:27:37;;;;;;;9.02;3.13;;;;;;;21.25;61.18;102070.56;5025312;28;20049;-59
2022/08/10 07:30:27;;;;;;;12.25;3.40;;;;;;;21.36;59.81;102064.38;5031816;28;20076;-58
2022/08/10 07:32:55;;;;;;;7.78;2.72;;;;;;;21.47;59.69;102075.06;5038711;28;20054;-55
2022/08/10 07:35:23;;;;;;;9.27;2.88;;;;;;;21.59;58.46;102075.88;5031518;28;20076;-57
2022/08/10 07:37:51;;;;;;;4.00;2.65;;;;;;;21.70;58.40;102067.78;5030168;28;20080;-59
2022/08/10 07:40:19;;;;;;;6.40;2.63;;;;;;;21.81;57.88;102069.59;5032400;28;20061;-57
2022/08/10 07:42:51;;;;;;;8.98;2.70;;;;;;;21.84;56.77;102067.50;5030764;28;20593;-56
2022/08/10 07:45:18;;;;;;;8.60;2.72;;;;;;;21.90;56.55;102075.03;5033975;28;20049;-57
2022/08/10 07:47:54;;;;;;;9.02;3.38;;;;;;;22.03;56.73;102074.84;5031019;28;20057;-60
2022/08/10 07:50:23;;;;;;;7.10;2.55;;;;;;;22.20;56.33;102078.81;5032341;28;20042;-59
2022/08/10 07:52:52;;;;;;;8.85;2.75;;;;;;;22.32;56.01;102068.88;5036130;28;20228;-60
2022/08/10 07:55:20;;;;;;;9.00;3.33;;;;;;;22.44;55.21;102075.88;5033711;28;20045;-60
2022/08/10 07:58:09;;;;;;;5.65;3.03;;;;;;;22.54;54.70;102074.06;5030382;28;20072;-59
2022/08/10 08:00:36;;;;;;;8.75;3.00;;;;;;;22.65;54.54;102078.50;5025873;28;20159;-58
2022/08/10 08:03:06;;;;;;;8.73;2.20;;;;;;;22.71;53.84;102078.81;5037225;28;20417;-59
2022/08/10 08:05:33;;;;;;;6.65;2.72;;;;;;;22.80;53.54;102081.69;5025156;28;20049;-60
2022/08/10 08:08:21;;;;;;;7.60;3.35;;;;;;;22.80;53.41;102082.53;5029137;28;20068;-58
2022/08/10 08:10:49;;;;;;;9.35;3.42;;;;;;;22.75;52.77;102077.56;5030969;28;20071;-58
2022/08/10 08:13:17;;;;;;;11.02;2.38;;;;;;;22.71;52.47;102077.97;5035198;28;20052;-59
2022/08/10 08:15:44;;;;;;;10.20;2.45;;;;;;;22.75;51.49;102082.94;5031403;28;20049;-60
2022/08/10 08:18:33;;;;;;;4.95;2.58;;;;;;;22.86;51.91;102073.94;5031290;28;20518;-59
2022/08/10 08:21:03;;;;;;;7.82;2.90;;;;;;;23.05;51.12;102075.03;5021252;28;20053;-57
2022/08/10 08:23:50;;;;;;;4.97;2.47;;;;;;;23.24;50.45;102073.25;5031351;28;20068;-58
2022/08/10 08:26:38;;;;;;;7.50;2.67;;;;;;;23.43;49.73;102071.59;5022250;28;20065;-59
2022/08/10 08:29:08;;;;;;;10.35;2.72;;;;;;;23.55;49.60;102064.22;5028897;28;20052;-58
2022/08/10 08:31:35;;;;;;;6.35;2.47;;;;;;;23.60;49.47;102060.16;5034622;28;20062;-60
2022/08/10 08:34:20;;;;;;;11.13;3.03;;;;;;;23.71;48.77;102065.41;5033347;28;20057;-61
2022/08/10 08:36:48;;;;;;;10.63;2.50;;;;;;;23.79;48.30;102061.19;5028285;28;20119;-61
2022/08/10 08:39:16;;;;;;;8.00;3.17;;;;;;;23.78;46.60;102057.66;5027464;28;20053;-60
2022/08/10 08:42:06;;;;;;;3.72;1.95;;;;;;;23.85;46.88;102060.59;5026775;28;20062;-59
2022/08/10 08:44:39;;;;;;;6.95;2.42;;;;;;;23.93;45.82;102058.91;5021890;28;20046;-60
2022/08/10 08:47:19;;;;;;;5.20;2.72;;;;;;;23.99;45.90;102065.53;5031347;28;20144;-57
2022/08/10 08:50:44;;;;;;;8.30;2.55;;;;;;;24.23;45.52;102060.56;5023918;28;20873;-57
2022/08/10 08:53:23;;;;;;;3.53;2.00;;;;;;;24.39;45.15;102056.44;5029517;28;20057;-59
2022/08/10 08:56:49;;;;;;;8.32;2.13;;;;;;;24.47;44.60;102046.66;5021640;28;20057;-57
2022/08/10 08:59:24;;;;;;;;;;;;;;;24.57;43.75;102060.06;5009342;28;20540;-59
2022/08/10 09:02:13;;;;;;;5.00;1.60;;;;;;;24.70;43.24;102057.91;5027362;28;19931;-58
2022/08/10 09:04:59;;;;;;;3.28;1.27;;;;;;;24.84;43.20;102053.03;5027629;28;20479;-57
2022/08/10 09:07:36;;;;;;;7.72;1.90;;;;;;;25.00;41.91;102062.16;5024371;28;20064;-56
2022/08/10 09:10:39;;;;;;;3.45;1.77;;;;;;;25.15;41.81;102050.91;5035823;28;20045;-58
2022/08/10 09:13:18;;;;;;;6.97;2.05;;;;;;;25.27;41.13;102044.31;5033414;28;20064;-57
2022/08/10 09:15:55;;;;;;;4.20;2.03;;;;;;;25.37;40.85;102050.47;5032419;28;20069;-56
2022/08/10 09:18:40;;;;;;;3.60;2.00;;;;;;;25.42;40.65;102050.03;5027095;28;20091;-57
2022/08/10 09:21:32;;;;;;;2.42;1.52;;;;;;;25.50;38.45;102053.66;5028446;28;20050;-54
2022/08/10 09:24:10;;;;;;;3.42;1.23;;;;;;;25.63;37.00;102049.72;5024923;28;20065;-57
2022/08/10 09:26:41;;;;;;;5.63;1.08;;;;;;;25.73;35.44;102048.63;5018917;28;20437;-58
2022/08/10 09:29:12;;;;;;;2.95;1.10;;;;;;;25.72;34.23;102055.03;5026537;28;20063;-57
2022/08/10 09:31:45;;;;;;;6.35;1.20;;;;;;;25.83;34.58;102047.72;5029120;28;20064;-59
2022/08/10 09:34:49;;;;;;;1.38;1.00;;;;;;;25.96;33.75;102053.56;5033250;22;20053;-58
2022/08/10 09:38:03;;;;;;;3.58;1.40;;;;;;;26.10;34.13;102047.59;5006134;28;20403;-54
2022/08/10 09:41:04;;;;;;;2.10;1.20;;;;;;;26.15;34.33;102047.13;4991787;28;20057;-57
2022/08/10 09:44:01;;;;;;;1.85;1.10;;;;;;;26.20;34.39;102042.09;4991852;28;20447;-57
2022/08/10 09:46:59;;;;;;;4.32;1.13;;;;;;;26.31;34.17;102039.16;5001479;28;20133;-57
2022/08/10 09:49:36;;;;;;;3.47;1.48;;;;;;;26.36;34.18;102034.13;5000610;28;20057;-52
2022/08/10 09:52:27;;;;;;;2.40;1.20;;;;;;;26.37;35.02;102034.97;5005635;28;20046;-57
2022/08/10 09:55:16;;;;;;;5.45;1.33;;;;;;;26.58;33.70;102034.63;5006968;28;20120;-54
2022/08/10 09:58:05;;;;;;;2.80;1.20;;;;;;;26.52;32.71;102027.97;4997667;28;20054;-56
2022/08/10 10:00:37;;;;;;;6.60;1.40;;;;;;;26.65;32.25;102028.38;4993016;28;20057;-52
2022/08/10 10:03:14;;;;;;;5.43;1.05;;;;;;;26.72;31.43;102034.00;5006829;28;20053;-54
2022/08/10 10:06:02;;;;;;;2.78;1.00;;;;;;;26.79;31.37;102028.78;4992463;28;20057;-57
2022/08/10 10:08:37;;;;;;;;;;;;;;;26.88;31.33;102031.34;4997272;28;20050;-57
2022/08/10 10:11:34;;;;;;;2.70;1.17;;;;;;;26.78;30.49;102025.25;4998881;28;19921;-54
2022/08/10 10:14:16;;;;;;;4.35;1.10;;;;;;;26.73;30.76;102023.03;4993490;28;20046;-58
2022/08/10 10:17:11;;;;;;;9.63;1.48;;;;;;;26.61;30.67;102018.06;4994457;28;20064;-57
2022/08/10 10:19:52;;;;;;;1.92;0.90;;;;;;;26.68;30.44;102019.97;4986786;28;20046;-56
2022/08/10 10:22:31;;;;;;;4.93;1.33;;;;;;;26.68;30.49;102021.81;4994279;28;20051;-56
2022/08/10 10:25:03;;;;;;;8.80;1.13;;;;;;;26.63;30.54;102016.06;4994875;28;20511;-53
2022/08/10 10:28:05;;;;;;;3.40;1.08;;;;;;;26.70;30.56;102009.00;5003963;28;20414;-56
2022/08/10 10:30:35;;;;;;;;;;;;;;;26.76;30.30;102001.09;4993597;28;20066;-53
2022/08/10 10:33:13;;;;;;;4.10;1.25;;;;;;;26.89;30.90;102007.91;5001759;28;19921;-57
2022/08/10 10:35:51;;;;;;;2.28;1.00;;;;;;;27.04;30.75;102003.53;5006042;28;20403;-57
2022/08/10 10:38:22;;;;;;;3.42;1.17;;;;;;;27.26;30.21;102002.94;5008264;28;20636;-56
2022/08/10 10:41:32;;;;;;;2.70;1.20;;;;;;;27.36;29.70;101993.84;5001282;28;20042;-52
2022/08/10 10:44:47;;;;;;;3.30;1.42;;;;;;;27.53;29.57;101987.44;5000034;28;20054;-54
2022/08/10 10:47:31;;;;;;;3.33;0.90;;;;;;;27.67;29.16;101988.59;5004640;28;20443;-56
2022/08/10 10:50:11;;;;;;;1.90;1.00;;;;;;;27.76;28.39;101993.88;4997701;28;20057;-57
2022/08/10 10:53:00;;;;;;;6.05;1.42;;;;;;;27.77;27.88;101989.31;5002353;28;20556;-56
2022/08/10 10:55:37;;;;;;;1.83;1.20;;;;;;;27.91;27.42;101991.31;5001821;28;20049;-56
2022/08/10 10:58:29;;;;;;;7.68;1.45;;;;;;;27.71;27.33;101989.97;4994534;28;20046;-58
2022/08/10 11:01:17;;;;;;;7.35;1.52;;;;;;;27.18;28.90;101983.16;5004416;28;20061;-58
2022/08/10 11:04:15;;;;;;;5.28;2.00;;;;;;;27.51;28.52;101984.03;5011531;28;20058;-58
2022/08/10 11:07:03;;;;;;;3.22;1.40;;;;;;;27.65;27.59;101980.69;4958330;28;20053;-58
2022/08/10 11:09:35;;;;;;;1.73;0.98;;;;;;;27.76;27.65;101972.22;4991845;28;20058;-58
2022/08/10 11:12:41;;;;;;;3.58;1.00;;;;;;;27.98;27.11;101976.09;5012366;28;20045;-58
2022/08/10 11:15:34;;;;;;;3.83;1.13;;;;;;;28.17;27.32;101972.16;5004757;28;20072;-57
2022/08/10 11:18:35;;;;;;;5.32;1.13;;;;;;;28.42;27.18;101977.53;5008181;28;20510;-57
2022/08/10 11:21:24;;;;;;;2.47;1.02;;;;;;;28.67;27.28;101970.97;4987718;28;20429;-58
2022/08/10 11:24:02;;;;;;;3.33;1.13;;;;;;;28.90;27.38;101970.19;5007128;28;20050;-57
2022/08/10 11:26:57;;;;;;;1.63;0.80;;;;;;;29.16;26.88;101969.88;4994927;28;20046;-57
2022/08/10 11:29:32;;;;;;;2.75;1.52;;;;;;;29.41;26.56;101971.41;5008683;28;20057;-57
2022/08/10 11:32:11;;;;;;;1.90;1.20;;;;;;;29.59;25.90;101964.84;5001006;28;20046;-57
2022/08/10 11:35:06;;;;;;;3.45;1.30;;;;;;;29.61;25.24;101962.78;4994278;28;20057;-57
2022/08/10 11:38:06;;;;;;;3.38;1.20;;;;;;;29.71;24.11;101964.19;4995203;28;20050;-55
2022/08/10 11:41:08;;;;;;;2.03;1.10;;;;;;;29.64;24.38;101971.41;5001785;28;20062;-57
2022/08/10 11:44:07;;;;;;;1.20;1.00;;;;;;;29.88;24.55;101958.63;5016760;28;20046;-58
2022/08/10 11:46:38;;;;;;;2.05;1.00;;;;;;;29.97;23.93;101957.50;5000472;28;20111;-55
2022/08/10 11:49:11;;;;;;;4.60;1.00;;;;;;;30.02;23.82;101949.63;5005829;28;20048;-53
2022/08/10 11:51:43;;;;;;;3.92;1.23;;;;;;;30.19;23.93;101945.75;4996273;28;20054;-57
2022/08/10 11:54:24;;;;;;;3.50;1.20;;;;;;;30.22;23.15;101944.53;4990921;28;20530;-55
2022/08/10 11:56:53;;;;;;;2.13;1.10;;;;;;;30.32;23.35;101946.97;4995950;28;20054;-57
2022/08/10 12:02:31;;;;;;;1.20;0.88;;;;;;;30.44;22.93;101946.28;4994226;28;20049;-56
2022/08/10 12:05:06;;;;;;;2.35;1.20;;;;;;;30.60;23.15;101947.94;4988353;28;20511;-57
2022/08/10 12:07:34;;;;;;;1.95;1.20;;;;;;;30.79;23.23;101935.63;4996882;28;20470;-54
2022/08/10 12:10:22;;;;;;;2.45;1.30;;;;;;;30.78;23.04;101936.69;4987846;28;20068;-57
2022/08/10 12:12:54;;;;;;;2.78;1.05;;;;;;;30.89;22.75;101929.88;5000779;28;20399;-57
2022/08/10 12:15:40;;;;;;;5.47;1.33;;;;;;;31.11;22.90;101941.63;4989802;28;20050;-57
2022/08/10 12:18:16;;;;;;;2.67;1.50;;;;;;;31.16;22.60;101937.31;4994501;28;20046;-58
2022/08/10 12:20:46;;;;;;;4.43;1.70;;;;;;;31.26;22.98;101931.53;4988794;28;20050;-56
2022/08/10 12:23:25;;;;;;;4.57;1.20;;;;;;;31.23;22.52;101932.75;4991927;28;20050;-58